createdAt,value
2018-12-29T00:04:21.215Z,21.7
2018-12-29T00:14:20.390Z,21.6
2018-12-29T00:24:19.597Z,21.6
2018-12-29T00:34:18.797Z,21.6
2018-12-29T00:44:17.999Z,21.5
2018-12-29T00:54:17.205Z,21.6
2018-12-29T01:04:16.403Z,21.6
2018-12-29T01:14:15.604Z,21.5
2018-12-29T01:24:14.815Z,21.5
2018-12-29T01:34:14.007Z,21.5
2018-12-29T01:44:13.208Z,21.5
2018-12-29T01:54:12.411Z,21.4
2018-12-29T02:04:11.616Z,21.4
2018-12-29T02:14:10.818Z,21.4
2018-12-29T02:24:10.016Z,21.4
2018-12-29T02:34:09.222Z,21.4
2018-12-29T02:44:08.428Z,21.4
2018-12-29T02:54:07.624Z,21.3
2018-12-29T03:04:06.834Z,21.3
2018-12-29T03:14:06.035Z,21.4
2018-12-29T03:24:05.241Z,21.7
2018-12-29T03:34:04.438Z,21.6
2018-12-29T03:44:03.637Z,21.5
2018-12-29T03:54:02.843Z,21.4
2018-12-29T04:04:02.041Z,21.4
2018-12-29T04:14:01.245Z,21.4
2018-12-29T04:24:00.449Z,21.4
2018-12-29T04:33:59.650Z,21.4
2018-12-29T04:43:58.843Z,21.4
2018-12-29T04:53:58.047Z,21.3
2018-12-29T05:03:57.243Z,21.4
2018-12-29T05:13:56.443Z,21.6
2018-12-29T05:23:55.647Z,21.5
2018-12-29T05:33:54.841Z,21.4
2018-12-29T05:43:54.047Z,21.4
2018-12-29T05:53:53.246Z,21.3
2018-12-29T06:03:52.436Z,21.3
2018-12-29T06:13:51.641Z,21.3
2018-12-29T06:23:50.888Z,21.4
2018-12-29T06:33:50.045Z,21.3
2018-12-29T06:43:49.235Z,21.4
2018-12-29T06:53:48.432Z,21.4
2018-12-29T07:03:47.637Z,21.3
2018-12-29T07:13:46.831Z,21.2
2018-12-29T07:23:46.032Z,21.2
2018-12-29T07:33:45.243Z,21.1
2018-12-29T07:43:44.440Z,21.1
2018-12-29T07:53:43.634Z,21.3
2018-12-29T08:03:42.851Z,22.1
2018-12-29T08:13:42.048Z,22.4
2018-12-29T08:23:41.254Z,22.5
2018-12-29T08:33:40.453Z,22.1
2018-12-29T08:43:39.658Z,21.9
2018-12-29T08:53:38.863Z,21.8
2018-12-29T09:03:38.077Z,21.8
2018-12-29T09:13:37.272Z,21.7
2018-12-29T09:23:36.485Z,21.6
2018-12-29T09:33:35.683Z,21.5
2018-12-29T09:43:34.892Z,21.6
2018-12-29T09:53:34.098Z,21.5
2018-12-29T10:03:33.295Z,21.4
2018-12-29T10:13:32.509Z,21.4
2018-12-29T10:23:31.710Z,21.4
2018-12-29T10:33:30.909Z,21.6
2018-12-29T10:43:30.175Z,21.6
2018-12-29T10:53:29.333Z,21.6
2018-12-29T11:03:28.545Z,21.5
2018-12-29T11:13:27.757Z,21.5
2018-12-29T11:23:26.955Z,21.4
2018-12-29T11:33:26.164Z,21.4
2018-12-29T11:43:25.369Z,21.3
2018-12-29T11:53:24.581Z,21.3
2018-12-29T12:03:23.783Z,21.3
2018-12-29T12:13:22.996Z,21.3
2018-12-29T12:23:22.202Z,21.3
2018-12-29T12:33:21.415Z,21.7
2018-12-29T12:43:20.614Z,22.1
2018-12-29T12:53:19.820Z,21.9
2018-12-29T13:03:19.027Z,21.8
2018-12-29T13:13:18.239Z,21.6
2018-12-29T13:23:17.442Z,21.6
2018-12-29T13:33:16.638Z,21.4
2018-12-29T13:43:15.845Z,21.5
2018-12-29T13:53:15.050Z,21.4
2018-12-29T14:03:14.256Z,21.4
2018-12-29T14:13:13.464Z,21.4
2018-12-29T14:23:12.661Z,21.4
2018-12-29T14:33:11.867Z,21.4
2018-12-29T14:43:11.072Z,21.4
2018-12-29T14:53:10.279Z,21.4
2018-12-29T15:03:09.479Z,21.4
2018-12-29T15:13:08.688Z,21.4
2018-12-29T15:23:07.880Z,21.3
2018-12-29T15:33:07.087Z,21.2
2018-12-29T15:43:06.295Z,21.2
2018-12-29T15:53:05.504Z,21.2
2018-12-29T16:03:04.720Z,21.2
2018-12-29T16:13:03.919Z,21.3
2018-12-29T16:23:03.136Z,21.4
2018-12-29T16:33:02.339Z,21.4
2018-12-29T16:43:01.549Z,21.4
2018-12-29T16:53:00.856Z,21.3
2018-12-29T17:02:59.957Z,21.3
2018-12-29T17:12:59.167Z,21.3
2018-12-29T17:22:58.381Z,21.3
2018-12-29T17:32:57.584Z,21.3
2018-12-29T17:42:56.791Z,21.4
2018-12-29T17:52:56.002Z,21.3
2018-12-29T18:02:55.213Z,21.3
2018-12-29T18:12:54.987Z,21.3
2018-12-29T18:22:53.631Z,21.2
2018-12-29T18:32:52.833Z,21.2
2018-12-29T18:42:52.045Z,21.3
2018-12-29T18:52:51.265Z,21.8
2018-12-29T19:02:50.457Z,21.9
2018-12-29T19:12:49.678Z,21.6
2018-12-29T19:22:48.873Z,21.5
2018-12-29T19:32:48.129Z,21.4
2018-12-29T19:42:47.298Z,21.3
2018-12-29T19:52:46.505Z,21.4
2018-12-29T20:02:45.718Z,21.9
2018-12-29T20:12:44.927Z,22.1
2018-12-29T20:22:44.135Z,22.1
2018-12-29T20:32:43.346Z,21.9
2018-12-29T20:42:42.565Z,21.8
2018-12-29T20:52:41.767Z,21.6
2018-12-29T21:02:40.963Z,21.6
2018-12-29T21:12:40.168Z,21.5
2018-12-29T21:22:39.388Z,21.4
2018-12-29T21:32:38.586Z,21.4
2018-12-29T21:42:37.791Z,21.4
2018-12-29T21:52:36.995Z,21.4
2018-12-29T22:02:36.203Z,21.3
2018-12-29T22:12:35.407Z,21.3
2018-12-29T22:22:34.605Z,21.4
2018-12-29T22:32:33.809Z,21.4
2018-12-29T22:42:33.020Z,21.4
2018-12-29T22:52:32.223Z,21.4
2018-12-29T23:02:31.419Z,21.4
2018-12-29T23:12:30.627Z,21.4
2018-12-29T23:22:29.824Z,21.4
2018-12-29T23:32:29.032Z,21.5
2018-12-29T23:42:28.231Z,21.8
2018-12-29T23:52:27.444Z,21.6
